sensor_id;sensor_type;location;lat;lon;timestamp;P1;durP1;ratioP1;P2;durP2;ratioP2
842;SDS011;407;48.884;9.126;2023-12-04T00:01:12;17.97;;;7.30;;
842;SDS011;407;48.884;9.126;2023-12-04T00:03:37;19.13;;;7.25;;
842;SDS011;407;48.884;9.126;2023-12-04T00:06:03;15.18;;;7.05;;
842;SDS011;407;48.884;9.126;2023-12-04T00:08:29;17.07;;;8.20;;
842;SDS011;407;48.884;9.126;2023-12-04T00:10:54;18.57;;;8.20;;
842;SDS011;407;48.884;9.126;2023-12-04T00:13:20;16.88;;;8.23;;
842;SDS011;407;48.884;9.126;2023-12-04T00:15:45;16.13;;;7.10;;
842;SDS011;407;48.884;9.126;2023-12-04T00:18:11;18.97;;;8.47;;
842;SDS011;407;48.884;9.126;2023-12-04T00:20:37;16.52;;;6.68;;
842;SDS011;407;48.884;9.126;2023-12-04T00:23:02;22.57;;;8.97;;
842;SDS011;407;48.884;9.126;2023-12-04T00:25:28;20.77;;;8.67;;
842;SDS011;407;48.884;9.126;2023-12-04T00:27:53;13.73;;;6.63;;
842;SDS011;407;48.884;9.126;2023-12-04T00:30:19;20.02;;;8.60;;
842;SDS011;407;48.884;9.126;2023-12-04T00:32:44;21.63;;;9.03;;
842;SDS011;407;48.884;9.126;2023-12-04T00:35:10;20.47;;;9.07;;
842;SDS011;407;48.884;9.126;2023-12-04T00:37:35;27.90;;;7.65;;
842;SDS011;407;48.884;9.126;2023-12-04T00:40:03;17.75;;;8.30;;
842;SDS011;407;48.884;9.126;2023-12-04T00:42:30;25.07;;;9.07;;
842;SDS011;407;48.884;9.126;2023-12-04T00:44:55;22.10;;;10.23;;
842;SDS011;407;48.884;9.126;2023-12-04T00:47:21;20.08;;;8.07;;
842;SDS011;407;48.884;9.126;2023-12-04T00:49:46;19.45;;;7.70;;
842;SDS011;407;48.884;9.126;2023-12-04T00:52:12;13.50;;;6.33;;
842;SDS011;407;48.884;9.126;2023-12-04T00:54:40;18.77;;;8.70;;
842;SDS011;407;48.884;9.126;2023-12-04T00:57:06;22.13;;;9.73;;
842;SDS011;407;48.884;9.126;2023-12-04T00:59:31;17.13;;;7.35;;
842;SDS011;407;48.884;9.126;2023-12-04T01:01:57;18.60;;;8.30;;
842;SDS011;407;48.884;9.126;2023-12-04T01:04:22;18.63;;;7.43;;
842;SDS011;407;48.884;9.126;2023-12-04T01:06:48;21.65;;;8.18;;
842;SDS011;407;48.884;9.126;2023-12-04T01:09:13;17.08;;;7.03;;
842;SDS011;407;48.884;9.126;2023-12-04T01:11:39;14.97;;;7.23;;
842;SDS011;407;48.884;9.126;2023-12-04T01:14:04;20.80;;;9.50;;
842;SDS011;407;48.884;9.126;2023-12-04T01:16:30;16.23;;;7.23;;
842;SDS011;407;48.884;9.126;2023-12-04T01:18:56;22.17;;;8.00;;
842;SDS011;407;48.884;9.126;2023-12-04T01:21:21;18.30;;;7.55;;
842;SDS011;407;48.884;9.126;2023-12-04T01:23:47;18.00;;;7.70;;
842;SDS011;407;48.884;9.126;2023-12-04T01:26:12;14.17;;;6.20;;
842;SDS011;407;48.884;9.126;2023-12-04T01:28:38;17.58;;;6.97;;
842;SDS011;407;48.884;9.126;2023-12-04T01:31:04;16.60;;;7.80;;
842;SDS011;407;48.884;9.126;2023-12-04T01:33:29;17.73;;;7.30;;
842;SDS011;407;48.884;9.126;2023-12-04T01:35:55;14.70;;;6.80;;
842;SDS011;407;48.884;9.126;2023-12-04T01:38:21;24.37;;;9.77;;
842;SDS011;407;48.884;9.126;2023-12-04T01:40:46;18.30;;;7.97;;
842;SDS011;407;48.884;9.126;2023-12-04T01:43:12;16.60;;;7.43;;
842;SDS011;407;48.884;9.126;2023-12-04T01:45:37;18.08;;;7.57;;
842;SDS011;407;48.884;9.126;2023-12-04T01:48:03;19.05;;;8.10;;
842;SDS011;407;48.884;9.126;2023-12-04T01:50:30;16.80;;;7.45;;
842;SDS011;407;48.884;9.126;2023-12-04T01:52:56;17.10;;;8.30;;
842;SDS011;407;48.884;9.126;2023-12-04T01:55:22;18.08;;;8.50;;
842;SDS011;407;48.884;9.126;2023-12-04T01:57:47;14.83;;;7.17;;
842;SDS011;407;48.884;9.126;2023-12-04T02:00:13;19.10;;;8.07;;
842;SDS011;407;48.884;9.126;2023-12-04T02:02:39;19.40;;;8.23;;
842;SDS011;407;48.884;9.126;2023-12-04T02:05:07;17.20;;;7.55;;
842;SDS011;407;48.884;9.126;2023-12-04T02:07:34;20.05;;;8.43;;
842;SDS011;407;48.884;9.126;2023-12-04T02:10:01;15.60;;;6.80;;
842;SDS011;407;48.884;9.126;2023-12-04T02:12:27;19.15;;;7.97;;
842;SDS011;407;48.884;9.126;2023-12-04T02:14:53;20.15;;;8.60;;
842;SDS011;407;48.884;9.126;2023-12-04T02:17:19;17.77;;;7.30;;
842;SDS011;407;48.884;9.126;2023-12-04T02:19:45;19.88;;;8.43;;
842;SDS011;407;48.884;9.126;2023-12-04T02:22:11;18.67;;;7.63;;
842;SDS011;407;48.884;9.126;2023-12-04T02:24:36;18.00;;;7.40;;
842;SDS011;407;48.884;9.126;2023-12-04T02:27:10;24.27;;;7.50;;
842;SDS011;407;48.884;9.126;2023-12-04T02:29:45;16.65;;;6.55;;
842;SDS011;407;48.884;9.126;2023-12-04T02:32:17;17.77;;;7.63;;
842;SDS011;407;48.884;9.126;2023-12-04T02:34:44;17.67;;;7.35;;
842;SDS011;407;48.884;9.126;2023-12-04T02:37:12;19.25;;;8.10;;
842;SDS011;407;48.884;9.126;2023-12-04T02:39:39;18.27;;;8.55;;
842;SDS011;407;48.884;9.126;2023-12-04T02:42:06;17.27;;;6.68;;
842;SDS011;407;48.884;9.126;2023-12-04T02:44:31;19.75;;;8.38;;
842;SDS011;407;48.884;9.126;2023-12-04T02:46:57;15.47;;;6.17;;
842;SDS011;407;48.884;9.126;2023-12-04T02:49:22;16.65;;;7.80;;
842;SDS011;407;48.884;9.126;2023-12-04T02:51:48;16.35;;;6.90;;
842;SDS011;407;48.884;9.126;2023-12-04T02:54:13;15.70;;;6.13;;
842;SDS011;407;48.884;9.126;2023-12-04T02:56:39;15.63;;;6.85;;
842;SDS011;407;48.884;9.126;2023-12-04T02:59:04;17.17;;;7.70;;
842;SDS011;407;48.884;9.126;2023-12-04T03:01:30;15.40;;;6.63;;
842;SDS011;407;48.884;9.126;2023-12-04T03:03:55;19.17;;;7.80;;
842;SDS011;407;48.884;9.126;2023-12-04T03:06:21;14.80;;;6.87;;
842;SDS011;407;48.884;9.126;2023-12-04T03:08:48;17.27;;;6.13;;
842;SDS011;407;48.884;9.126;2023-12-04T03:11:13;15.95;;;6.35;;
842;SDS011;407;48.884;9.126;2023-12-04T03:13:39;18.60;;;7.00;;
842;SDS011;407;48.884;9.126;2023-12-04T03:16:04;21.87;;;8.33;;
842;SDS011;407;48.884;9.126;2023-12-04T03:18:30;18.40;;;7.35;;
842;SDS011;407;48.884;9.126;2023-12-04T03:20:57;14.77;;;6.35;;
842;SDS011;407;48.884;9.126;2023-12-04T03:23:22;16.90;;;6.50;;
842;SDS011;407;48.884;9.126;2023-12-04T03:25:48;16.95;;;5.90;;
842;SDS011;407;48.884;9.126;2023-12-04T03:28:13;20.63;;;7.30;;
842;SDS011;407;48.884;9.126;2023-12-04T03:30:40;15.27;;;5.80;;
842;SDS011;407;48.884;9.126;2023-12-04T03:33:08;14.50;;;6.65;;
842;SDS011;407;48.884;9.126;2023-12-04T03:35:34;16.27;;;6.80;;
842;SDS011;407;48.884;9.126;2023-12-04T03:37:59;15.63;;;7.10;;
842;SDS011;407;48.884;9.126;2023-12-04T03:40:25;14.60;;;6.57;;
842;SDS011;407;48.884;9.126;2023-12-04T03:42:50;14.10;;;6.47;;
842;SDS011;407;48.884;9.126;2023-12-04T03:45:16;15.50;;;6.20;;
842;SDS011;407;48.884;9.126;2023-12-04T03:47:41;17.67;;;7.10;;
842;SDS011;407;48.884;9.126;2023-12-04T03:50:07;17.40;;;7.30;;
842;SDS011;407;48.884;9.126;2023-12-04T03:52:32;20.42;;;7.38;;
842;SDS011;407;48.884;9.126;2023-12-04T03:54:58;20.10;;;9.60;;
842;SDS011;407;48.884;9.126;2023-12-04T03:57:23;15.75;;;7.53;;
842;SDS011;407;48.884;9.126;2023-12-04T03:59:49;19.50;;;8.20;;
842;SDS011;407;48.884;9.126;2023-12-04T04:02:14;15.43;;;7.33;;
842;SDS011;407;48.884;9.126;2023-12-04T04:04:40;16.53;;;7.10;;
842;SDS011;407;48.884;9.126;2023-12-04T04:07:05;13.17;;;6.90;;
842;SDS011;407;48.884;9.126;2023-12-04T04:09:31;16.42;;;6.72;;
842;SDS011;407;48.884;9.126;2023-12-04T04:11:56;13.37;;;7.90;;
842;SDS011;407;48.884;9.126;2023-12-04T04:14:22;19.17;;;7.63;;
842;SDS011;407;48.884;9.126;2023-12-04T04:16:49;14.95;;;6.57;;
842;SDS011;407;48.884;9.126;2023-12-04T04:19:15;16.20;;;7.30;;
842;SDS011;407;48.884;9.126;2023-12-04T04:21:40;13.45;;;6.10;;
842;SDS011;407;48.884;9.126;2023-12-04T04:24:06;20.40;;;7.60;;
842;SDS011;407;48.884;9.126;2023-12-04T04:26:31;16.98;;;6.95;;
842;SDS011;407;48.884;9.126;2023-12-04T04:28:57;19.83;;;7.47;;
842;SDS011;407;48.884;9.126;2023-12-04T04:31:23;17.02;;;6.55;;
842;SDS011;407;48.884;9.126;2023-12-04T04:33:49;17.30;;;6.70;;
842;SDS011;407;48.884;9.126;2023-12-04T04:36:15;18.53;;;5.70;;
842;SDS011;407;48.884;9.126;2023-12-04T04:38:40;14.97;;;6.70;;
842;SDS011;407;48.884;9.126;2023-12-04T04:41:06;13.52;;;5.60;;
842;SDS011;407;48.884;9.126;2023-12-04T04:43:31;17.60;;;7.82;;
842;SDS011;407;48.884;9.126;2023-12-04T04:45:57;12.10;;;5.73;;
842;SDS011;407;48.884;9.126;2023-12-04T04:48:22;14.30;;;5.47;;
842;SDS011;407;48.884;9.126;2023-12-04T04:50:48;14.10;;;5.20;;
842;SDS011;407;48.884;9.126;2023-12-04T04:53:13;19.98;;;6.90;;
842;SDS011;407;48.884;9.126;2023-12-04T04:55:39;16.70;;;6.20;;
842;SDS011;407;48.884;9.126;2023-12-04T04:58:05;12.20;;;5.17;;
842;SDS011;407;48.884;9.126;2023-12-04T05:00:30;16.87;;;6.77;;
842;SDS011;407;48.884;9.126;2023-12-04T05:02:56;14.93;;;5.90;;
842;SDS011;407;48.884;9.126;2023-12-04T05:05:21;13.37;;;5.50;;
842;SDS011;407;48.884;9.126;2023-12-04T05:07:47;15.15;;;5.72;;
842;SDS011;407;48.884;9.126;2023-12-04T05:10:12;16.27;;;6.63;;
842;SDS011;407;48.884;9.126;2023-12-04T05:12:38;13.68;;;6.43;;
842;SDS011;407;48.884;9.126;2023-12-04T05:15:03;17.97;;;6.63;;
842;SDS011;407;48.884;9.126;2023-12-04T05:17:29;17.92;;;6.28;;
842;SDS011;407;48.884;9.126;2023-12-04T05:19:55;14.80;;;6.73;;
842;SDS011;407;48.884;9.126;2023-12-04T05:22:21;16.38;;;6.72;;
842;SDS011;407;48.884;9.126;2023-12-04T05:24:49;17.92;;;6.32;;
842;SDS011;407;48.884;9.126;2023-12-04T05:27:14;15.27;;;5.75;;
842;SDS011;407;48.884;9.126;2023-12-04T05:29:40;17.92;;;7.40;;
842;SDS011;407;48.884;9.126;2023-12-04T05:32:06;13.40;;;6.10;;
842;SDS011;407;48.884;9.126;2023-12-04T05:34:31;18.80;;;6.13;;
842;SDS011;407;48.884;9.126;2023-12-04T05:36:57;12.80;;;5.80;;
842;SDS011;407;48.884;9.126;2023-12-04T05:39:22;14.93;;;5.70;;
842;SDS011;407;48.884;9.126;2023-12-04T05:41:48;16.00;;;5.77;;
842;SDS011;407;48.884;9.126;2023-12-04T05:44:13;15.53;;;6.10;;
842;SDS011;407;48.884;9.126;2023-12-04T05:46:39;12.43;;;5.53;;
842;SDS011;407;48.884;9.126;2023-12-04T05:49:04;16.97;;;6.47;;
842;SDS011;407;48.884;9.126;2023-12-04T05:51:30;16.05;;;5.57;;
842;SDS011;407;48.884;9.126;2023-12-04T05:53:55;19.43;;;7.40;;
842;SDS011;407;48.884;9.126;2023-12-04T05:56:21;14.00;;;5.70;;
842;SDS011;407;48.884;9.126;2023-12-04T05:58:46;15.73;;;5.65;;
842;SDS011;407;48.884;9.126;2023-12-04T06:01:12;15.33;;;6.07;;
842;SDS011;407;48.884;9.126;2023-12-04T06:03:39;15.82;;;6.85;;
842;SDS011;407;48.884;9.126;2023-12-04T06:06:04;15.93;;;6.00;;
842;SDS011;407;48.884;9.126;2023-12-04T06:08:30;14.50;;;5.53;;
842;SDS011;407;48.884;9.126;2023-12-04T06:10:55;17.20;;;7.03;;
842;SDS011;407;48.884;9.126;2023-12-04T06:13:21;14.83;;;6.20;;
842;SDS011;407;48.884;9.126;2023-12-04T06:15:46;14.37;;;5.90;;
842;SDS011;407;48.884;9.126;2023-12-04T06:18:12;12.30;;;6.03;;
842;SDS011;407;48.884;9.126;2023-12-04T06:20:37;16.93;;;5.87;;
842;SDS011;407;48.884;9.126;2023-12-04T06:23:03;15.32;;;6.40;;
842;SDS011;407;48.884;9.126;2023-12-04T06:25:29;16.55;;;7.22;;
842;SDS011;407;48.884;9.126;2023-12-04T06:27:55;13.52;;;5.75;;
842;SDS011;407;48.884;9.126;2023-12-04T06:30:20;17.58;;;6.55;;
842;SDS011;407;48.884;9.126;2023-12-04T06:32:46;16.47;;;6.10;;
842;SDS011;407;48.884;9.126;2023-12-04T06:35:12;17.03;;;6.57;;
842;SDS011;407;48.884;9.126;2023-12-04T06:37:38;13.73;;;5.85;;
842;SDS011;407;48.884;9.126;2023-12-04T06:40:05;14.48;;;6.63;;
842;SDS011;407;48.884;9.126;2023-12-04T06:42:33;15.20;;;6.33;;
842;SDS011;407;48.884;9.126;2023-12-04T06:45:00;15.32;;;6.57;;
842;SDS011;407;48.884;9.126;2023-12-04T06:47:26;14.38;;;6.00;;
842;SDS011;407;48.884;9.126;2023-12-04T06:49:53;13.43;;;6.75;;
842;SDS011;407;48.884;9.126;2023-12-04T06:52:18;15.50;;;6.17;;
842;SDS011;407;48.884;9.126;2023-12-04T06:54:44;17.02;;;6.93;;
842;SDS011;407;48.884;9.126;2023-12-04T06:57:09;13.60;;;5.57;;
842;SDS011;407;48.884;9.126;2023-12-04T06:59:35;12.03;;;5.33;;
842;SDS011;407;48.884;9.126;2023-12-04T07:02:00;14.88;;;5.78;;
842;SDS011;407;48.884;9.126;2023-12-04T07:04:26;16.07;;;6.03;;
842;SDS011;407;48.884;9.126;2023-12-04T07:06:52;14.50;;;7.07;;
842;SDS011;407;48.884;9.126;2023-12-04T07:09:17;12.65;;;6.55;;
842;SDS011;407;48.884;9.126;2023-12-04T07:11:43;19.87;;;6.63;;
842;SDS011;407;48.884;9.126;2023-12-04T07:14:09;15.27;;;6.68;;
842;SDS011;407;48.884;9.126;2023-12-04T07:16:41;14.77;;;6.25;;
842;SDS011;407;48.884;9.126;2023-12-04T07:19:07;13.55;;;5.15;;
842;SDS011;407;48.884;9.126;2023-12-04T07:21:34;16.58;;;6.35;;
842;SDS011;407;48.884;9.126;2023-12-04T07:23:59;13.97;;;6.20;;
842;SDS011;407;48.884;9.126;2023-12-04T07:26:25;16.60;;;5.97;;
842;SDS011;407;48.884;9.126;2023-12-04T07:28:50;17.63;;;6.63;;
842;SDS011;407;48.884;9.126;2023-12-04T07:31:15;15.07;;;5.97;;
842;SDS011;407;48.884;9.126;2023-12-04T07:33:41;14.70;;;6.10;;
842;SDS011;407;48.884;9.126;2023-12-04T07:36:07;13.35;;;6.40;;
842;SDS011;407;48.884;9.126;2023-12-04T07:38:32;17.10;;;6.10;;
842;SDS011;407;48.884;9.126;2023-12-04T07:40:58;15.17;;;6.27;;
842;SDS011;407;48.884;9.126;2023-12-04T07:43:23;15.40;;;6.37;;
842;SDS011;407;48.884;9.126;2023-12-04T07:45:49;14.77;;;5.10;;
842;SDS011;407;48.884;9.126;2023-12-04T07:48:14;15.90;;;6.80;;
842;SDS011;407;48.884;9.126;2023-12-04T07:50:41;13.30;;;5.20;;
842;SDS011;407;48.884;9.126;2023-12-04T07:53:07;16.58;;;6.53;;
842;SDS011;407;48.884;9.126;2023-12-04T07:55:34;17.55;;;7.00;;
842;SDS011;407;48.884;9.126;2023-12-04T07:58:00;15.73;;;6.00;;
842;SDS011;407;48.884;9.126;2023-12-04T08:00:25;15.65;;;5.80;;
842;SDS011;407;48.884;9.126;2023-12-04T08:02:51;11.10;;;5.40;;
842;SDS011;407;48.884;9.126;2023-12-04T08:05:16;14.30;;;5.85;;
842;SDS011;407;48.884;9.126;2023-12-04T08:07:42;13.97;;;5.00;;
842;SDS011;407;48.884;9.126;2023-12-04T08:10:08;15.07;;;6.00;;
842;SDS011;407;48.884;9.126;2023-12-04T08:12:33;10.45;;;5.25;;
842;SDS011;407;48.884;9.126;2023-12-04T08:14:59;16.38;;;6.30;;
842;SDS011;407;48.884;9.126;2023-12-04T08:17:26;14.75;;;6.28;;
842;SDS011;407;48.884;9.126;2023-12-04T08:19:52;16.95;;;7.03;;
842;SDS011;407;48.884;9.126;2023-12-04T08:22:18;18.63;;;6.50;;
842;SDS011;407;48.884;9.126;2023-12-04T08:24:44;13.30;;;6.23;;
842;SDS011;407;48.884;9.126;2023-12-04T08:27:09;14.50;;;6.80;;
842;SDS011;407;48.884;9.126;2023-12-04T08:29:35;15.52;;;6.55;;
842;SDS011;407;48.884;9.126;2023-12-04T08:32:00;14.97;;;6.00;;
842;SDS011;407;48.884;9.126;2023-12-04T08:34:26;14.43;;;6.60;;
842;SDS011;407;48.884;9.126;2023-12-04T08:36:51;17.17;;;6.47;;
842;SDS011;407;48.884;9.126;2023-12-04T08:39:17;14.17;;;6.90;;
842;SDS011;407;48.884;9.126;2023-12-04T08:41:46;14.30;;;6.00;;
842;SDS011;407;48.884;9.126;2023-12-04T08:44:14;15.45;;;6.68;;
842;SDS011;407;48.884;9.126;2023-12-04T08:46:41;16.35;;;6.90;;
842;SDS011;407;48.884;9.126;2023-12-04T08:49:08;14.00;;;6.20;;
842;SDS011;407;48.884;9.126;2023-12-04T08:51:34;15.07;;;5.73;;
842;SDS011;407;48.884;9.126;2023-12-04T08:53:59;13.10;;;5.50;;
842;SDS011;407;48.884;9.126;2023-12-04T08:56:25;13.30;;;5.63;;
842;SDS011;407;48.884;9.126;2023-12-04T08:58:50;14.90;;;5.87;;
842;SDS011;407;48.884;9.126;2023-12-04T09:01:16;16.00;;;5.93;;
842;SDS011;407;48.884;9.126;2023-12-04T09:03:41;14.60;;;5.30;;
842;SDS011;407;48.884;9.126;2023-12-04T09:06:07;14.63;;;5.95;;
842;SDS011;407;48.884;9.126;2023-12-04T09:08:33;15.05;;;6.47;;
842;SDS011;407;48.884;9.126;2023-12-04T09:10:59;15.73;;;6.18;;
842;SDS011;407;48.884;9.126;2023-12-04T09:13:24;13.20;;;5.32;;
842;SDS011;407;48.884;9.126;2023-12-04T09:15:50;13.32;;;5.53;;
842;SDS011;407;48.884;9.126;2023-12-04T09:18:16;20.55;;;6.88;;
842;SDS011;407;48.884;9.126;2023-12-04T09:20:42;16.73;;;8.17;;
842;SDS011;407;48.884;9.126;2023-12-04T09:23:08;19.60;;;6.97;;
842;SDS011;407;48.884;9.126;2023-12-04T09:25:34;13.88;;;5.30;;
842;SDS011;407;48.884;9.126;2023-12-04T09:28:00;14.80;;;5.87;;
842;SDS011;407;48.884;9.126;2023-12-04T09:30:25;18.03;;;6.80;;
842;SDS011;407;48.884;9.126;2023-12-04T09:32:51;13.95;;;5.63;;
842;SDS011;407;48.884;9.126;2023-12-04T09:35:16;10.77;;;4.53;;
842;SDS011;407;48.884;9.126;2023-12-04T09:37:43;13.80;;;6.38;;
842;SDS011;407;48.884;9.126;2023-12-04T09:40:10;15.70;;;6.03;;
842;SDS011;407;48.884;9.126;2023-12-04T09:42:36;13.40;;;5.55;;
842;SDS011;407;48.884;9.126;2023-12-04T09:45:04;17.65;;;5.40;;
842;SDS011;407;48.884;9.126;2023-12-04T09:47:30;14.32;;;5.75;;
842;SDS011;407;48.884;9.126;2023-12-04T09:49:57;11.63;;;5.70;;
842;SDS011;407;48.884;9.126;2023-12-04T09:52:23;12.75;;;5.50;;
842;SDS011;407;48.884;9.126;2023-12-04T09:54:50;14.40;;;6.07;;
842;SDS011;407;48.884;9.126;2023-12-04T09:57:16;18.85;;;7.38;;
842;SDS011;407;48.884;9.126;2023-12-04T09:59:43;13.27;;;5.85;;
842;SDS011;407;48.884;9.126;2023-12-04T10:02:09;25.13;;;7.97;;
842;SDS011;407;48.884;9.126;2023-12-04T10:04:35;16.45;;;6.40;;
842;SDS011;407;48.884;9.126;2023-12-04T10:07:01;17.48;;;7.70;;
842;SDS011;407;48.884;9.126;2023-12-04T10:09:27;17.30;;;6.50;;
842;SDS011;407;48.884;9.126;2023-12-04T10:11:53;15.95;;;6.45;;
842;SDS011;407;48.884;9.126;2023-12-04T10:14:21;14.65;;;6.72;;
842;SDS011;407;48.884;9.126;2023-12-04T10:16:47;15.47;;;5.93;;
842;SDS011;407;48.884;9.126;2023-12-04T10:21:54;16.10;;;6.50;;
842;SDS011;407;48.884;9.126;2023-12-04T10:24:42;16.00;;;7.22;;
842;SDS011;407;48.884;9.126;2023-12-04T10:27:07;14.18;;;5.53;;
842;SDS011;407;48.884;9.126;2023-12-04T10:29:43;16.98;;;7.50;;
842;SDS011;407;48.884;9.126;2023-12-04T10:32:12;15.80;;;7.28;;
842;SDS011;407;48.884;9.126;2023-12-04T10:34:37;14.68;;;5.68;;
842;SDS011;407;48.884;9.126;2023-12-04T10:37:04;14.65;;;6.30;;
842;SDS011;407;48.884;9.126;2023-12-04T10:39:30;20.60;;;6.63;;
842;SDS011;407;48.884;9.126;2023-12-04T10:42:01;23.15;;;6.72;;
842;SDS011;407;48.884;9.126;2023-12-04T10:44:27;16.35;;;5.55;;
842;SDS011;407;48.884;9.126;2023-12-04T10:46:55;15.85;;;5.70;;
842;SDS011;407;48.884;9.126;2023-12-04T10:49:27;15.77;;;7.53;;
842;SDS011;407;48.884;9.126;2023-12-04T10:51:56;16.38;;;6.30;;
842;SDS011;407;48.884;9.126;2023-12-04T10:54:24;15.82;;;6.40;;
842;SDS011;407;48.884;9.126;2023-12-04T10:56:51;15.45;;;6.75;;
842;SDS011;407;48.884;9.126;2023-12-04T10:59:18;15.38;;;7.20;;
842;SDS011;407;48.884;9.126;2023-12-04T11:01:53;16.23;;;6.30;;
842;SDS011;407;48.884;9.126;2023-12-04T11:04:20;19.13;;;7.30;;
842;SDS011;407;48.884;9.126;2023-12-04T11:06:52;14.87;;;7.50;;
842;SDS011;407;48.884;9.126;2023-12-04T11:09:20;19.83;;;7.40;;
842;SDS011;407;48.884;9.126;2023-12-04T11:11:48;18.10;;;7.82;;
842;SDS011;407;48.884;9.126;2023-12-04T11:14:19;22.10;;;8.10;;
842;SDS011;407;48.884;9.126;2023-12-04T11:16:51;12.88;;;6.20;;
842;SDS011;407;48.884;9.126;2023-12-04T11:19:28;21.25;;;7.68;;
842;SDS011;407;48.884;9.126;2023-12-04T11:22:04;16.10;;;7.20;;
842;SDS011;407;48.884;9.126;2023-12-04T11:24:32;13.73;;;6.53;;
842;SDS011;407;48.884;9.126;2023-12-04T11:26:57;13.10;;;6.40;;
842;SDS011;407;48.884;9.126;2023-12-04T11:29:23;14.23;;;6.93;;
842;SDS011;407;48.884;9.126;2023-12-04T11:31:50;15.73;;;6.15;;
842;SDS011;407;48.884;9.126;2023-12-04T11:34:15;20.93;;;6.43;;
842;SDS011;407;48.884;9.126;2023-12-04T11:36:41;14.00;;;6.07;;
842;SDS011;407;48.884;9.126;2023-12-04T11:39:10;16.25;;;6.30;;
842;SDS011;407;48.884;9.126;2023-12-04T11:41:36;14.15;;;6.13;;
842;SDS011;407;48.884;9.126;2023-12-04T11:44:02;14.68;;;5.53;;
842;SDS011;407;48.884;9.126;2023-12-04T11:46:28;29.75;;;7.07;;
842;SDS011;407;48.884;9.126;2023-12-04T11:51:46;16.48;;;5.78;;
842;SDS011;407;48.884;9.126;2023-12-04T11:54:15;13.70;;;6.15;;
842;SDS011;407;48.884;9.126;2023-12-04T11:56:57;15.98;;;7.05;;
842;SDS011;407;48.884;9.126;2023-12-04T11:59:37;19.58;;;5.97;;
842;SDS011;407;48.884;9.126;2023-12-04T12:02:04;16.95;;;6.68;;
842;SDS011;407;48.884;9.126;2023-12-04T12:04:33;11.15;;;5.95;;
842;SDS011;407;48.884;9.126;2023-12-04T12:06:58;18.40;;;6.37;;
842;SDS011;407;48.884;9.126;2023-12-04T12:09:27;13.98;;;5.13;;
842;SDS011;407;48.884;9.126;2023-12-04T12:11:53;16.27;;;7.07;;
842;SDS011;407;48.884;9.126;2023-12-04T12:14:20;14.68;;;5.80;;
842;SDS011;407;48.884;9.126;2023-12-04T12:16:46;12.20;;;5.70;;
842;SDS011;407;48.884;9.126;2023-12-04T12:19:12;14.03;;;5.77;;
842;SDS011;407;48.884;9.126;2023-12-04T12:21:37;14.70;;;6.22;;
842;SDS011;407;48.884;9.126;2023-12-04T12:24:05;15.40;;;6.03;;
842;SDS011;407;48.884;9.126;2023-12-04T12:26:31;15.00;;;5.57;;
842;SDS011;407;48.884;9.126;2023-12-04T12:28:57;13.68;;;5.68;;
842;SDS011;407;48.884;9.126;2023-12-04T12:31:22;12.98;;;6.00;;
842;SDS011;407;48.884;9.126;2023-12-04T12:33:48;14.23;;;6.07;;
842;SDS011;407;48.884;9.126;2023-12-04T12:36:14;16.80;;;6.05;;
842;SDS011;407;48.884;9.126;2023-12-04T12:38:43;15.20;;;5.68;;
842;SDS011;407;48.884;9.126;2023-12-04T12:41:14;14.00;;;5.40;;
842;SDS011;407;48.884;9.126;2023-12-04T12:43:41;13.90;;;6.53;;
842;SDS011;407;48.884;9.126;2023-12-04T12:46:07;12.40;;;4.90;;
842;SDS011;407;48.884;9.126;2023-12-04T12:48:32;14.95;;;5.60;;
842;SDS011;407;48.884;9.126;2023-12-04T12:50:58;17.00;;;5.68;;
842;SDS011;407;48.884;9.126;2023-12-04T12:53:24;12.37;;;5.90;;
842;SDS011;407;48.884;9.126;2023-12-04T12:55:50;12.82;;;5.75;;
842;SDS011;407;48.884;9.126;2023-12-04T12:58:16;15.73;;;6.18;;
842;SDS011;407;48.884;9.126;2023-12-04T13:00:45;15.57;;;6.13;;
842;SDS011;407;48.884;9.126;2023-12-04T13:03:15;14.30;;;4.88;;
842;SDS011;407;48.884;9.126;2023-12-04T13:05:41;14.88;;;7.95;;
842;SDS011;407;48.884;9.126;2023-12-04T13:08:06;13.60;;;6.23;;
842;SDS011;407;48.884;9.126;2023-12-04T13:10:32;13.32;;;6.03;;
842;SDS011;407;48.884;9.126;2023-12-04T13:12:57;16.30;;;6.07;;
842;SDS011;407;48.884;9.126;2023-12-04T13:15:24;16.43;;;6.87;;
842;SDS011;407;48.884;9.126;2023-12-04T13:17:50;15.93;;;6.77;;
842;SDS011;407;48.884;9.126;2023-12-04T13:20:16;13.17;;;5.90;;
842;SDS011;407;48.884;9.126;2023-12-04T13:22:43;14.63;;;5.68;;
842;SDS011;407;48.884;9.126;2023-12-04T13:25:08;14.60;;;7.00;;
842;SDS011;407;48.884;9.126;2023-12-04T13:27:38;17.35;;;7.00;;
842;SDS011;407;48.884;9.126;2023-12-04T13:30:05;15.15;;;6.68;;
842;SDS011;407;48.884;9.126;2023-12-04T13:32:33;18.15;;;6.78;;
842;SDS011;407;48.884;9.126;2023-12-04T13:35:03;16.58;;;6.68;;
842;SDS011;407;48.884;9.126;2023-12-04T13:37:30;15.37;;;7.20;;
842;SDS011;407;48.884;9.126;2023-12-04T13:39:59;16.63;;;6.55;;
842;SDS011;407;48.884;9.126;2023-12-04T13:42:29;15.18;;;7.20;;
842;SDS011;407;48.884;9.126;2023-12-04T13:45:13;16.50;;;6.90;;
842;SDS011;407;48.884;9.126;2023-12-04T13:47:38;17.23;;;6.80;;
842;SDS011;407;48.884;9.126;2023-12-04T13:50:05;18.77;;;8.83;;
842;SDS011;407;48.884;9.126;2023-12-04T13:52:33;18.63;;;7.53;;
842;SDS011;407;48.884;9.126;2023-12-04T13:54:59;16.25;;;7.70;;
842;SDS011;407;48.884;9.126;2023-12-04T13:57:25;18.20;;;7.33;;
842;SDS011;407;48.884;9.126;2023-12-04T13:59:53;17.90;;;8.32;;
842;SDS011;407;48.884;9.126;2023-12-04T14:02:22;17.40;;;8.27;;
842;SDS011;407;48.884;9.126;2023-12-04T14:04:47;21.38;;;8.77;;
842;SDS011;407;48.884;9.126;2023-12-04T14:07:13;16.20;;;8.50;;
842;SDS011;407;48.884;9.126;2023-12-04T14:09:39;17.77;;;8.80;;
842;SDS011;407;48.884;9.126;2023-12-04T14:12:05;21.05;;;8.40;;
842;SDS011;407;48.884;9.126;2023-12-04T14:14:32;18.45;;;8.25;;
842;SDS011;407;48.884;9.126;2023-12-04T14:16:58;16.77;;;8.03;;
842;SDS011;407;48.884;9.126;2023-12-04T14:19:24;16.40;;;7.65;;
842;SDS011;407;48.884;9.126;2023-12-04T14:21:50;18.20;;;9.27;;
842;SDS011;407;48.884;9.126;2023-12-04T14:24:15;21.63;;;9.40;;
842;SDS011;407;48.884;9.126;2023-12-04T14:26:42;17.50;;;8.57;;
842;SDS011;407;48.884;9.126;2023-12-04T14:29:08;20.17;;;8.60;;
842;SDS011;407;48.884;9.126;2023-12-04T14:31:34;18.43;;;8.60;;
842;SDS011;407;48.884;9.126;2023-12-04T14:34:00;16.00;;;8.18;;
842;SDS011;407;48.884;9.126;2023-12-04T14:36:25;24.48;;;9.77;;
842;SDS011;407;48.884;9.126;2023-12-04T14:38:52;16.23;;;8.60;;
842;SDS011;407;48.884;9.126;2023-12-04T14:41:18;21.03;;;8.60;;
842;SDS011;407;48.884;9.126;2023-12-04T14:43:43;18.23;;;8.55;;
842;SDS011;407;48.884;9.126;2023-12-04T14:46:09;19.23;;;8.50;;
842;SDS011;407;48.884;9.126;2023-12-04T14:48:36;19.60;;;7.93;;
842;SDS011;407;48.884;9.126;2023-12-04T14:51:03;23.63;;;8.95;;
842;SDS011;407;48.884;9.126;2023-12-04T14:53:30;21.55;;;8.70;;
842;SDS011;407;48.884;9.126;2023-12-04T14:55:57;18.95;;;8.00;;
842;SDS011;407;48.884;9.126;2023-12-04T14:58:41;20.38;;;9.18;;
842;SDS011;407;48.884;9.126;2023-12-04T15:01:10;24.70;;;9.27;;
842;SDS011;407;48.884;9.126;2023-12-04T15:03:53;20.85;;;8.55;;
842;SDS011;407;48.884;9.126;2023-12-04T15:06:42;20.97;;;7.97;;
842;SDS011;407;48.884;9.126;2023-12-04T15:09:07;24.20;;;8.70;;
842;SDS011;407;48.884;9.126;2023-12-04T15:11:51;19.90;;;8.13;;
842;SDS011;407;48.884;9.126;2023-12-04T15:14:39;18.23;;;7.85;;
842;SDS011;407;48.884;9.126;2023-12-04T15:17:20;21.27;;;7.93;;
842;SDS011;407;48.884;9.126;2023-12-04T15:19:58;23.95;;;9.32;;
842;SDS011;407;48.884;9.126;2023-12-04T15:22:50;15.82;;;7.50;;
842;SDS011;407;48.884;9.126;2023-12-04T15:25:15;19.50;;;7.90;;
842;SDS011;407;48.884;9.126;2023-12-04T15:27:41;18.45;;;7.88;;
842;SDS011;407;48.884;9.126;2023-12-04T15:30:06;19.80;;;8.90;;
842;SDS011;407;48.884;9.126;2023-12-04T15:32:33;17.08;;;8.68;;